sensor_id;sensor_type;location;lat;lon;timestamp;P1;durP1;ratioP1;P2;durP2;ratioP2
56183;SDS011;42086;53.170;6.980;2022-10-16T08:27:36;5.80;;;2.88;;
56183;SDS011;42086;53.170;6.980;2022-10-16T08:30:02;5.53;;;2.38;;
56183;SDS011;42086;53.170;6.980;2022-10-16T08:32:28;5.43;;;2.47;;
56183;SDS011;42086;53.170;6.980;2022-10-16T08:34:53;4.75;;;2.33;;
56183;SDS011;42086;53.170;6.980;2022-10-16T08:37:19;3.88;;;2.53;;
56183;SDS011;42086;53.170;6.980;2022-10-16T08:39:45;5.82;;;2.08;;
56183;SDS011;42086;53.170;6.980;2022-10-16T08:42:13;3.53;;;1.98;;
56183;SDS011;42086;53.170;6.980;2022-10-16T08:50:26;6.40;;;1.60;;
56183;SDS011;42086;53.170;6.980;2022-10-16T08:52:54;6.03;;;2.13;;
56183;SDS011;42086;53.170;6.980;2022-10-16T08:55:38;3.22;;;1.73;;
56183;SDS011;42086;53.170;6.980;2022-10-16T08:58:18;3.85;;;1.70;;
56183;SDS011;42086;53.170;6.980;2022-10-16T09:00:56;4.10;;;1.30;;
56183;SDS011;42086;53.170;6.980;2022-10-16T09:05:57;5.53;;;1.73;;
56183;SDS011;42086;53.170;6.980;2022-10-16T09:16:30;6.70;;;1.60;;
56183;SDS011;42086;53.170;6.980;2022-10-16T09:19:13;3.00;;;1.20;;
56183;SDS011;42086;53.170;6.980;2022-10-16T09:21:53;3.08;;;1.40;;
56183;SDS011;42086;53.170;6.980;2022-10-16T09:24:22;6.38;;;1.27;;
56183;SDS011;42086;53.170;6.980;2022-10-16T09:26:51;2.95;;;1.58;;
56183;SDS011;42086;53.170;6.980;2022-10-16T09:29:17;5.32;;;1.52;;
56183;SDS011;42086;53.170;6.980;2022-10-16T09:31:45;3.83;;;1.30;;
56183;SDS011;42086;53.170;6.980;2022-10-16T09:34:17;3.60;;;1.08;;
56183;SDS011;42086;53.170;6.980;2022-10-16T09:36:57;6.65;;;1.75;;
56183;SDS011;42086;53.170;6.980;2022-10-16T09:39:26;7.57;;;1.23;;
56183;SDS011;42086;53.170;6.980;2022-10-16T09:41:52;3.00;;;1.20;;
56183;SDS011;42086;53.170;6.980;2022-10-16T09:46:44;4.50;;;1.40;;
56183;SDS011;42086;53.170;6.980;2022-10-16T09:49:25;6.53;;;1.60;;
56183;SDS011;42086;53.170;6.980;2022-10-16T09:52:02;7.88;;;1.65;;
56183;SDS011;42086;53.170;6.980;2022-10-16T09:54:37;7.72;;;1.60;;
56183;SDS011;42086;53.170;6.980;2022-10-16T09:57:13;7.30;;;2.38;;
56183;SDS011;42086;53.170;6.980;2022-10-16T09:59:46;8.45;;;1.77;;
56183;SDS011;42086;53.170;6.980;2022-10-16T10:02:13;5.53;;;1.60;;
56183;SDS011;42086;53.170;6.980;2022-10-16T10:04:49;4.90;;;1.55;;
56183;SDS011;42086;53.170;6.980;2022-10-16T10:07:17;7.60;;;1.60;;
56183;SDS011;42086;53.170;6.980;2022-10-16T10:09:46;5.95;;;1.70;;
56183;SDS011;42086;53.170;6.980;2022-10-16T10:12:18;7.03;;;1.65;;
56183;SDS011;42086;53.170;6.980;2022-10-16T10:14:50;6.82;;;1.90;;
56183;SDS011;42086;53.170;6.980;2022-10-16T10:17:27;7.32;;;1.38;;
56183;SDS011;42086;53.170;6.980;2022-10-16T10:19:54;7.45;;;1.88;;
56183;SDS011;42086;53.170;6.980;2022-10-16T11:08:13;7.15;;;1.88;;
56183;SDS011;42086;53.170;6.980;2022-10-16T11:10:46;7.40;;;1.63;;
56183;SDS011;42086;53.170;6.980;2022-10-16T11:16:02;5.68;;;1.60;;
56183;SDS011;42086;53.170;6.980;2022-10-16T11:21:39;6.88;;;1.30;;
56183;SDS011;42086;53.170;6.980;2022-10-16T11:24:45;7.70;;;2.42;;
56183;SDS011;42086;53.170;6.980;2022-10-16T11:27:26;9.68;;;1.67;;
56183;SDS011;42086;53.170;6.980;2022-10-16T11:30:11;9.60;;;1.70;;
56183;SDS011;42086;53.170;6.980;2022-10-16T11:32:52;10.20;;;1.25;;
56183;SDS011;42086;53.170;6.980;2022-10-16T11:35:38;9.02;;;1.40;;
56183;SDS011;42086;53.170;6.980;2022-10-16T11:38:34;11.98;;;1.95;;
56183;SDS011;42086;53.170;6.980;2022-10-16T11:41:33;9.77;;;1.48;;
56183;SDS011;42086;53.170;6.980;2022-10-16T11:47:16;9.57;;;1.60;;
56183;SDS011;42086;53.170;6.980;2022-10-16T11:49:49;6.82;;;1.40;;
56183;SDS011;42086;53.170;6.980;2022-10-16T11:52:40;8.27;;;1.50;;
56183;SDS011;42086;53.170;6.980;2022-10-16T11:55:34;7.53;;;1.30;;
56183;SDS011;42086;53.170;6.980;2022-10-16T11:58:02;8.63;;;1.50;;
56183;SDS011;42086;53.170;6.980;2022-10-16T12:03:46;6.38;;;1.50;;
56183;SDS011;42086;53.170;6.980;2022-10-16T12:08:39;8.13;;;1.40;;
56183;SDS011;42086;53.170;6.980;2022-10-16T12:11:19;9.05;;;1.75;;
56183;SDS011;42086;53.170;6.980;2022-10-16T12:13:48;7.70;;;1.20;;
56183;SDS011;42086;53.170;6.980;2022-10-16T12:18:41;8.30;;;1.58;;
56183;SDS011;42086;53.170;6.980;2022-10-16T12:21:09;8.15;;;1.67;;
56183;SDS011;42086;53.170;6.980;2022-10-16T12:23:46;8.52;;;1.58;;
56183;SDS011;42086;53.170;6.980;2022-10-16T12:26:25;7.00;;;1.60;;
56183;SDS011;42086;53.170;6.980;2022-10-16T12:29:09;7.50;;;1.52;;
56183;SDS011;42086;53.170;6.980;2022-10-16T12:31:46;6.63;;;1.52;;
56183;SDS011;42086;53.170;6.980;2022-10-16T12:34:19;9.85;;;1.70;;
56183;SDS011;42086;53.170;6.980;2022-10-16T12:36:48;8.27;;;1.60;;
56183;SDS011;42086;53.170;6.980;2022-10-16T12:39:22;6.80;;;1.38;;
56183;SDS011;42086;53.170;6.980;2022-10-16T12:42:00;8.52;;;2.03;;
56183;SDS011;42086;53.170;6.980;2022-10-16T12:44:34;4.25;;;1.17;;
56183;SDS011;42086;53.170;6.980;2022-10-16T12:47:01;5.68;;;1.52;;
56183;SDS011;42086;53.170;6.980;2022-10-16T12:51:53;9.05;;;1.70;;
56183;SDS011;42086;53.170;6.980;2022-10-16T12:54:25;6.78;;;1.63;;
56183;SDS011;42086;53.170;6.980;2022-10-16T13:07:44;8.93;;;1.60;;
56183;SDS011;42086;53.170;6.980;2022-10-16T13:10:21;7.45;;;2.25;;
56183;SDS011;42086;53.170;6.980;2022-10-16T13:13:00;7.22;;;1.58;;
56183;SDS011;42086;53.170;6.980;2022-10-16T13:23:31;7.93;;;1.75;;
56183;SDS011;42086;53.170;6.980;2022-10-16T13:28:39;6.45;;;1.25;;
56183;SDS011;42086;53.170;6.980;2022-10-16T13:31:05;7.88;;;1.40;;
56183;SDS011;42086;53.170;6.980;2022-10-16T13:33:49;7.15;;;1.48;;
56183;SDS011;42086;53.170;6.980;2022-10-16T13:36:24;5.50;;;1.50;;
56183;SDS011;42086;53.170;6.980;2022-10-16T13:39:06;9.05;;;1.48;;
56183;SDS011;42086;53.170;6.980;2022-10-16T13:41:40;5.32;;;1.45;;
56183;SDS011;42086;53.170;6.980;2022-10-16T13:44:17;6.15;;;1.70;;
56183;SDS011;42086;53.170;6.980;2022-10-16T13:46:45;6.22;;;1.50;;
56183;SDS011;42086;53.170;6.980;2022-10-16T13:49:12;5.13;;;1.50;;
56183;SDS011;42086;53.170;6.980;2022-10-16T13:51:40;8.52;;;1.38;;
56183;SDS011;42086;53.170;6.980;2022-10-16T13:54:08;6.60;;;1.30;;
56183;SDS011;42086;53.170;6.980;2022-10-16T13:56:38;7.05;;;1.50;;
56183;SDS011;42086;53.170;6.980;2022-10-16T13:59:06;7.68;;;1.35;;
56183;SDS011;42086;53.170;6.980;2022-10-16T14:01:47;7.45;;;1.40;;
56183;SDS011;42086;53.170;6.980;2022-10-16T14:04:15;12.15;;;1.58;;
56183;SDS011;42086;53.170;6.980;2022-10-16T14:06:45;5.82;;;1.35;;
56183;SDS011;42086;53.170;6.980;2022-10-16T14:09:24;7.15;;;1.38;;
56183;SDS011;42086;53.170;6.980;2022-10-16T14:11:58;5.40;;;1.55;;
56183;SDS011;42086;53.170;6.980;2022-10-16T14:15:02;6.07;;;1.60;;
56183;SDS011;42086;53.170;6.980;2022-10-16T14:17:32;6.80;;;1.25;;
56183;SDS011;42086;53.170;6.980;2022-10-16T14:20:00;8.45;;;1.40;;
56183;SDS011;42086;53.170;6.980;2022-10-16T14:22:31;6.80;;;1.40;;
56183;SDS011;42086;53.170;6.980;2022-10-16T14:25:00;7.43;;;1.42;;
56183;SDS011;42086;53.170;6.980;2022-10-16T14:27:34;5.65;;;1.17;;
56183;SDS011;42086;53.170;6.980;2022-10-16T14:32:36;5.60;;;1.05;;
56183;SDS011;42086;53.170;6.980;2022-10-16T14:35:11;4.70;;;1.30;;
56183;SDS011;42086;53.170;6.980;2022-10-16T14:37:51;6.55;;;1.23;;
56183;SDS011;42086;53.170;6.980;2022-10-16T14:40:18;4.60;;;1.23;;
56183;SDS011;42086;53.170;6.980;2022-10-16T14:42:44;7.25;;;1.35;;
56183;SDS011;42086;53.170;6.980;2022-10-16T14:45:10;8.13;;;1.50;;
56183;SDS011;42086;53.170;6.980;2022-10-16T14:47:37;4.43;;;1.15;;
56183;SDS011;42086;53.170;6.980;2022-10-16T14:50:14;7.47;;;1.10;;
56183;SDS011;42086;53.170;6.980;2022-10-16T14:52:39;7.60;;;1.35;;
56183;SDS011;42086;53.170;6.980;2022-10-16T14:55:07;6.30;;;1.27;;
56183;SDS011;42086;53.170;6.980;2022-10-16T14:57:33;7.47;;;1.55;;
56183;SDS011;42086;53.170;6.980;2022-10-16T15:00:03;7.45;;;1.50;;
56183;SDS011;42086;53.170;6.980;2022-10-16T15:02:35;9.32;;;1.60;;
56183;SDS011;42086;53.170;6.980;2022-10-16T15:05:10;6.25;;;1.38;;
56183;SDS011;42086;53.170;6.980;2022-10-16T15:07:42;7.57;;;1.40;;
56183;SDS011;42086;53.170;6.980;2022-10-16T15:10:08;9.52;;;1.83;;
56183;SDS011;42086;53.170;6.980;2022-10-16T15:12:34;8.85;;;1.30;;
56183;SDS011;42086;53.170;6.980;2022-10-16T15:15:00;6.45;;;1.33;;
56183;SDS011;42086;53.170;6.980;2022-10-16T15:17:26;8.77;;;1.45;;
56183;SDS011;42086;53.170;6.980;2022-10-16T15:19:55;8.88;;;1.40;;
56183;SDS011;42086;53.170;6.980;2022-10-16T15:22:20;7.93;;;1.20;;
56183;SDS011;42086;53.170;6.980;2022-10-16T15:24:48;9.13;;;1.50;;
56183;SDS011;42086;53.170;6.980;2022-10-16T15:27:14;11.98;;;1.60;;
56183;SDS011;42086;53.170;6.980;2022-10-16T15:29:39;13.95;;;2.00;;
56183;SDS011;42086;53.170;6.980;2022-10-16T15:32:05;9.40;;;1.58;;
56183;SDS011;42086;53.170;6.980;2022-10-16T15:34:31;10.80;;;1.33;;
56183;SDS011;42086;53.170;6.980;2022-10-16T15:36:56;11.05;;;1.85;;
56183;SDS011;42086;53.170;6.980;2022-10-16T15:39:22;8.15;;;1.60;;
56183;SDS011;42086;53.170;6.980;2022-10-16T15:41:48;10.82;;;1.45;;
56183;SDS011;42086;53.170;6.980;2022-10-16T15:44:19;11.15;;;1.40;;
56183;SDS011;42086;53.170;6.980;2022-10-16T15:46:46;6.70;;;1.70;;
56183;SDS011;42086;53.170;6.980;2022-10-16T15:49:12;6.95;;;1.65;;
56183;SDS011;42086;53.170;6.980;2022-10-16T15:51:38;7.82;;;1.60;;
56183;SDS011;42086;53.170;6.980;2022-10-16T15:54:05;10.25;;;1.95;;
56183;SDS011;42086;53.170;6.980;2022-10-16T15:56:31;11.68;;;2.40;;
56183;SDS011;42086;53.170;6.980;2022-10-16T15:58:58;11.65;;;2.40;;
56183;SDS011;42086;53.170;6.980;2022-10-16T16:01:25;10.73;;;2.13;;
56183;SDS011;42086;53.170;6.980;2022-10-16T16:03:52;6.95;;;2.30;;
56183;SDS011;42086;53.170;6.980;2022-10-16T16:06:18;12.73;;;2.38;;
56183;SDS011;42086;53.170;6.980;2022-10-16T16:08:44;8.95;;;1.85;;
56183;SDS011;42086;53.170;6.980;2022-10-16T16:11:11;9.77;;;1.98;;
56183;SDS011;42086;53.170;6.980;2022-10-16T16:13:38;10.10;;;1.52;;
56183;SDS011;42086;53.170;6.980;2022-10-16T16:16:12;6.95;;;2.15;;
56183;SDS011;42086;53.170;6.980;2022-10-16T16:18:39;10.32;;;1.80;;
56183;SDS011;42086;53.170;6.980;2022-10-16T16:21:05;9.32;;;1.63;;
56183;SDS011;42086;53.170;6.980;2022-10-16T16:23:31;10.13;;;1.88;;
56183;SDS011;42086;53.170;6.980;2022-10-16T16:26:05;5.38;;;1.40;;
56183;SDS011;42086;53.170;6.980;2022-10-16T16:28:31;10.55;;;1.42;;
56183;SDS011;42086;53.170;6.980;2022-10-16T16:30:57;8.23;;;1.80;;
56183;SDS011;42086;53.170;6.980;2022-10-16T16:33:22;13.23;;;1.67;;
56183;SDS011;42086;53.170;6.980;2022-10-16T16:35:49;11.30;;;2.67;;
56183;SDS011;42086;53.170;6.980;2022-10-16T16:38:14;11.07;;;1.90;;
56183;SDS011;42086;53.170;6.980;2022-10-16T16:40:40;11.98;;;2.00;;
56183;SDS011;42086;53.170;6.980;2022-10-16T16:43:06;9.15;;;1.77;;
56183;SDS011;42086;53.170;6.980;2022-10-16T16:45:35;8.10;;;1.85;;
56183;SDS011;42086;53.170;6.980;2022-10-16T16:48:01;10.80;;;2.03;;
56183;SDS011;42086;53.170;6.980;2022-10-16T16:50:26;10.77;;;1.88;;
56183;SDS011;42086;53.170;6.980;2022-10-16T16:52:52;11.52;;;2.20;;
56183;SDS011;42086;53.170;6.980;2022-10-16T16:55:18;8.05;;;1.40;;
56183;SDS011;42086;53.170;6.980;2022-10-16T16:57:43;11.07;;;1.58;;
56183;SDS011;42086;53.170;6.980;2022-10-16T17:00:09;8.50;;;1.85;;
56183;SDS011;42086;53.170;6.980;2022-10-16T17:02:35;10.20;;;1.80;;
56183;SDS011;42086;53.170;6.980;2022-10-16T17:05:01;12.10;;;1.85;;
56183;SDS011;42086;53.170;6.980;2022-10-16T17:07:30;10.23;;;2.00;;
56183;SDS011;42086;53.170;6.980;2022-10-16T17:09:57;10.25;;;1.98;;
56183;SDS011;42086;53.170;6.980;2022-10-16T17:12:23;12.75;;;2.03;;
56183;SDS011;42086;53.170;6.980;2022-10-16T17:14:50;10.00;;;2.38;;
56183;SDS011;42086;53.170;6.980;2022-10-16T17:17:16;9.00;;;2.03;;
56183;SDS011;42086;53.170;6.980;2022-10-16T17:19:41;12.13;;;2.53;;
56183;SDS011;42086;53.170;6.980;2022-10-16T17:22:07;6.72;;;2.17;;
56183;SDS011;42086;53.170;6.980;2022-10-16T17:24:33;9.85;;;2.28;;
56183;SDS011;42086;53.170;6.980;2022-10-16T17:26:58;14.13;;;2.10;;
56183;SDS011;42086;53.170;6.980;2022-10-16T17:29:24;5.00;;;1.67;;
56183;SDS011;42086;53.170;6.980;2022-10-16T17:31:50;11.55;;;1.90;;
56183;SDS011;42086;53.170;6.980;2022-10-16T17:34:16;11.63;;;2.40;;
56183;SDS011;42086;53.170;6.980;2022-10-16T17:36:42;8.65;;;1.88;;
56183;SDS011;42086;53.170;6.980;2022-10-16T17:39:11;10.30;;;2.28;;
56183;SDS011;42086;53.170;6.980;2022-10-16T17:41:38;13.43;;;2.60;;
56183;SDS011;42086;53.170;6.980;2022-10-16T17:44:05;13.32;;;2.92;;
56183;SDS011;42086;53.170;6.980;2022-10-16T17:46:32;9.82;;;2.72;;
56183;SDS011;42086;53.170;6.980;2022-10-16T17:48:58;9.63;;;3.20;;
56183;SDS011;42086;53.170;6.980;2022-10-16T17:51:27;19.35;;;4.95;;
56183;SDS011;42086;53.170;6.980;2022-10-16T17:53:56;15.73;;;4.57;;
56183;SDS011;42086;53.170;6.980;2022-10-16T17:56:23;16.33;;;4.13;;
56183;SDS011;42086;53.170;6.980;2022-10-16T17:58:51;14.00;;;5.35;;
56183;SDS011;42086;53.170;6.980;2022-10-16T18:01:19;11.82;;;4.70;;
56183;SDS011;42086;53.170;6.980;2022-10-16T18:03:53;13.55;;;4.45;;
56183;SDS011;42086;53.170;6.980;2022-10-16T18:06:20;12.85;;;4.90;;
56183;SDS011;42086;53.170;6.980;2022-10-16T18:08:46;11.02;;;4.18;;
56183;SDS011;42086;53.170;6.980;2022-10-16T18:11:12;15.82;;;6.00;;
56183;SDS011;42086;53.170;6.980;2022-10-16T18:13:38;16.60;;;6.22;;
56183;SDS011;42086;53.170;6.980;2022-10-16T18:16:05;16.25;;;6.40;;
56183;SDS011;42086;53.170;6.980;2022-10-16T18:21:03;16.75;;;6.22;;
56183;SDS011;42086;53.170;6.980;2022-10-16T18:23:32;13.40;;;5.90;;
56183;SDS011;42086;53.170;6.980;2022-10-16T18:25:58;13.85;;;5.68;;
56183;SDS011;42086;53.170;6.980;2022-10-16T18:28:24;20.17;;;5.68;;
56183;SDS011;42086;53.170;6.980;2022-10-16T18:30:57;16.30;;;5.38;;
56183;SDS011;42086;53.170;6.980;2022-10-16T18:33:24;15.48;;;6.63;;
56183;SDS011;42086;53.170;6.980;2022-10-16T18:35:51;17.30;;;7.00;;
56183;SDS011;42086;53.170;6.980;2022-10-16T18:38:17;19.13;;;7.47;;
56183;SDS011;42086;53.170;6.980;2022-10-16T18:40:44;16.67;;;7.30;;
56183;SDS011;42086;53.170;6.980;2022-10-16T18:43:10;19.67;;;8.38;;
56183;SDS011;42086;53.170;6.980;2022-10-16T18:45:39;17.25;;;6.70;;
56183;SDS011;42086;53.170;6.980;2022-10-16T18:48:05;13.95;;;6.30;;
56183;SDS011;42086;53.170;6.980;2022-10-16T18:50:31;20.17;;;6.88;;
56183;SDS011;42086;53.170;6.980;2022-10-16T18:52:58;17.15;;;6.50;;
56183;SDS011;42086;53.170;6.980;2022-10-16T18:55:23;15.75;;;6.95;;
56183;SDS011;42086;53.170;6.980;2022-10-16T18:57:49;16.10;;;6.75;;
56183;SDS011;42086;53.170;6.980;2022-10-16T19:00:15;16.35;;;7.10;;
56183;SDS011;42086;53.170;6.980;2022-10-16T19:02:41;16.73;;;7.05;;
56183;SDS011;42086;53.170;6.980;2022-10-16T19:05:07;16.23;;;7.20;;
56183;SDS011;42086;53.170;6.980;2022-10-16T19:07:35;15.50;;;6.22;;
56183;SDS011;42086;53.170;6.980;2022-10-16T19:10:00;13.70;;;6.30;;
56183;SDS011;42086;53.170;6.980;2022-10-16T19:12:26;19.27;;;6.30;;
56183;SDS011;42086;53.170;6.980;2022-10-16T19:14:52;11.57;;;5.43;;
56183;SDS011;42086;53.170;6.980;2022-10-16T19:17:17;14.23;;;5.40;;
56183;SDS011;42086;53.170;6.980;2022-10-16T19:19:43;11.13;;;5.00;;
56183;SDS011;42086;53.170;6.980;2022-10-16T19:22:09;14.63;;;5.85;;
56183;SDS011;42086;53.170;6.980;2022-10-16T19:24:55;14.32;;;6.28;;
56183;SDS011;42086;53.170;6.980;2022-10-16T19:27:21;14.00;;;5.72;;
56183;SDS011;42086;53.170;6.980;2022-10-16T19:29:47;11.10;;;5.80;;
56183;SDS011;42086;53.170;6.980;2022-10-16T19:32:13;15.27;;;6.72;;
56183;SDS011;42086;53.170;6.980;2022-10-16T19:34:39;13.50;;;6.50;;
56183;SDS011;42086;53.170;6.980;2022-10-16T19:37:04;18.75;;;7.18;;
56183;SDS011;42086;53.170;6.980;2022-10-16T19:39:30;16.67;;;6.50;;
56183;SDS011;42086;53.170;6.980;2022-10-16T19:41:56;15.25;;;6.80;;
56183;SDS011;42086;53.170;6.980;2022-10-16T19:44:22;11.93;;;7.05;;
56183;SDS011;42086;53.170;6.980;2022-10-16T19:46:47;17.25;;;8.32;;
56183;SDS011;42086;53.170;6.980;2022-10-16T19:49:14;20.80;;;8.73;;
56183;SDS011;42086;53.170;6.980;2022-10-16T19:51:46;19.77;;;9.10;;
56183;SDS011;42086;53.170;6.980;2022-10-16T19:54:13;18.25;;;9.02;;
56183;SDS011;42086;53.170;6.980;2022-10-16T19:56:40;15.55;;;7.82;;
56183;SDS011;42086;53.170;6.980;2022-10-16T19:59:07;16.50;;;8.48;;
56183;SDS011;42086;53.170;6.980;2022-10-16T20:01:35;20.27;;;8.32;;
56183;SDS011;42086;53.170;6.980;2022-10-16T20:04:01;15.07;;;8.85;;
56183;SDS011;42086;53.170;6.980;2022-10-16T20:06:27;14.77;;;7.60;;
56183;SDS011;42086;53.170;6.980;2022-10-16T20:08:53;18.58;;;9.70;;
56183;SDS011;42086;53.170;6.980;2022-10-16T20:11:23;19.42;;;9.50;;
56183;SDS011;42086;53.170;6.980;2022-10-16T20:13:50;18.70;;;10.27;;
56183;SDS011;42086;53.170;6.980;2022-10-16T20:16:16;23.10;;;10.60;;
56183;SDS011;42086;53.170;6.980;2022-10-16T20:18:44;16.73;;;8.20;;
56183;SDS011;42086;53.170;6.980;2022-10-16T20:21:12;13.07;;;7.32;;
56183;SDS011;42086;53.170;6.980;2022-10-16T20:26:09;14.88;;;8.13;;
56183;SDS011;42086;53.170;6.980;2022-10-16T20:28:35;15.48;;;8.13;;
56183;SDS011;42086;53.170;6.980;2022-10-16T20:31:11;13.38;;;7.90;;
56183;SDS011;42086;53.170;6.980;2022-10-16T20:33:41;17.35;;;8.90;;
56183;SDS011;42086;53.170;6.980;2022-10-16T20:36:10;16.75;;;8.35;;
56183;SDS011;42086;53.170;6.980;2022-10-16T20:38:37;15.68;;;8.95;;
56183;SDS011;42086;53.170;6.980;2022-10-16T20:41:03;15.68;;;8.85;;
56183;SDS011;42086;53.170;6.980;2022-10-16T20:43:30;18.42;;;9.57;;
56183;SDS011;42086;53.170;6.980;2022-10-16T20:46:02;15.93;;;8.43;;
56183;SDS011;42086;53.170;6.980;2022-10-16T20:48:30;16.50;;;8.80;;
56183;SDS011;42086;53.170;6.980;2022-10-16T20:50:56;18.80;;;9.30;;
56183;SDS011;42086;53.170;6.980;2022-10-16T20:53:24;18.08;;;8.18;;
56183;SDS011;42086;53.170;6.980;2022-10-16T20:55:50;18.13;;;9.02;;
56183;SDS011;42086;53.170;6.980;2022-10-16T20:58:16;13.05;;;7.43;;
56183;SDS011;42086;53.170;6.980;2022-10-16T21:00:42;14.35;;;7.20;;
56183;SDS011;42086;53.170;6.980;2022-10-16T21:03:09;12.73;;;6.40;;
56183;SDS011;42086;53.170;6.980;2022-10-16T21:05:39;8.73;;;6.00;;
56183;SDS011;42086;53.170;6.980;2022-10-16T21:08:06;10.37;;;6.63;;
56183;SDS011;42086;53.170;6.980;2022-10-16T21:10:31;14.25;;;6.47;;
56183;SDS011;42086;53.170;6.980;2022-10-16T21:12:57;14.80;;;6.32;;
56183;SDS011;42086;53.170;6.980;2022-10-16T21:15:23;11.13;;;6.32;;
56183;SDS011;42086;53.170;6.980;2022-10-16T21:17:48;11.68;;;6.00;;
56183;SDS011;42086;53.170;6.980;2022-10-16T21:20:14;14.75;;;7.72;;
56183;SDS011;42086;53.170;6.980;2022-10-16T21:22:40;12.65;;;7.00;;
56183;SDS011;42086;53.170;6.980;2022-10-16T21:25:06;16.90;;;7.63;;
56183;SDS011;42086;53.170;6.980;2022-10-16T21:27:36;9.88;;;6.85;;
56183;SDS011;42086;53.170;6.980;2022-10-16T21:30:03;14.48;;;7.57;;
56183;SDS011;42086;53.170;6.980;2022-10-16T21:32:34;14.93;;;6.60;;
56183;SDS011;42086;53.170;6.980;2022-10-16T21:35:03;12.85;;;6.97;;
56183;SDS011;42086;53.170;6.980;2022-10-16T21:37:29;15.27;;;6.30;;
56183;SDS011;42086;53.170;6.980;2022-10-16T21:39:55;13.45;;;6.53;;
56183;SDS011;42086;53.170;6.980;2022-10-16T21:42:21;12.57;;;6.25;;
56183;SDS011;42086;53.170;6.980;2022-10-16T21:44:47;11.45;;;6.35;;
56183;SDS011;42086;53.170;6.980;2022-10-16T21:47:13;16.05;;;6.78;;
56183;SDS011;42086;53.170;6.980;2022-10-16T21:49:38;17.17;;;6.22;;
56183;SDS011;42086;53.170;6.980;2022-10-16T21:52:04;13.23;;;6.65;;
56183;SDS011;42086;53.170;6.980;2022-10-16T21:54:30;14.27;;;6.47;;
56183;SDS011;42086;53.170;6.980;2022-10-16T21:56:56;13.10;;;6.57;;
56183;SDS011;42086;53.170;6.980;2022-10-16T21:59:21;20.00;;;8.07;;
56183;SDS011;42086;53.170;6.980;2022-10-16T22:01:47;12.30;;;6.28;;
56183;SDS011;42086;53.170;6.980;2022-10-16T22:04:16;11.55;;;6.28;;
56183;SDS011;42086;53.170;6.980;2022-10-16T22:06:42;9.85;;;5.63;;
56183;SDS011;42086;53.170;6.980;2022-10-16T22:09:08;10.07;;;5.82;;
56183;SDS011;42086;53.170;6.980;2022-10-16T22:11:38;15.20;;;5.95;;
56183;SDS011;42086;53.170;6.980;2022-10-16T22:14:06;14.50;;;5.97;;
56183;SDS011;42086;53.170;6.980;2022-10-16T22:16:34;16.65;;;6.22;;
56183;SDS011;42086;53.170;6.980;2022-10-16T22:19:01;14.43;;;5.90;;
56183;SDS011;42086;53.170;6.980;2022-10-16T22:21:31;12.30;;;5.90;;
56183;SDS011;42086;53.170;6.980;2022-10-16T22:23:58;11.48;;;5.97;;
56183;SDS011;42086;53.170;6.980;2022-10-16T22:26:24;11.63;;;5.70;;
56183;SDS011;42086;53.170;6.980;2022-10-16T22:28:50;11.68;;;5.60;;
56183;SDS011;42086;53.170;6.980;2022-10-16T22:31:16;10.88;;;5.95;;
56183;SDS011;42086;53.170;6.980;2022-10-16T22:33:42;12.88;;;6.15;;
56183;SDS011;42086;53.170;6.980;2022-10-16T22:36:09;17.20;;;6.65;;
56183;SDS011;42086;53.170;6.980;2022-10-16T22:38:36;19.00;;;7.10;;
56183;SDS011;42086;53.170;6.980;2022-10-16T22:41:07;16.95;;;7.47;;
56183;SDS011;42086;53.170;6.980;2022-10-16T22:43:35;10.98;;;6.47;;
56183;SDS011;42086;53.170;6.980;2022-10-16T22:46:02;20.10;;;7.25;;
56183;SDS011;42086;53.170;6.980;2022-10-16T22:48:32;10.60;;;6.28;;
56183;SDS011;42086;53.170;6.980;2022-10-16T22:50:59;14.65;;;6.47;;
56183;SDS011;42086;53.170;6.980;2022-10-16T22:53:25;14.43;;;6.25;;
56183;SDS011;42086;53.170;6.980;2022-10-16T22:55:50;14.60;;;6.07;;
56183;SDS011;42086;53.170;6.980;2022-10-16T22:58:16;14.85;;;5.95;;
56183;SDS011;42086;53.170;6.980;2022-10-16T23:00:42;11.85;;;5.57;;
56183;SDS011;42086;53.170;6.980;2022-10-16T23:03:08;15.93;;;6.68;;
56183;SDS011;42086;53.170;6.980;2022-10-16T23:05:38;13.70;;;6.60;;
56183;SDS011;42086;53.170;6.980;2022-10-16T23:08:07;15.73;;;7.13;;
56183;SDS011;42086;53.170;6.980;2022-10-16T23:10:34;16.98;;;6.50;;
56183;SDS011;42086;53.170;6.980;2022-10-16T23:13:03;13.93;;;6.47;;
56183;SDS011;42086;53.170;6.980;2022-10-16T23:15:29;11.95;;;5.45;;
56183;SDS011;42086;53.170;6.980;2022-10-16T23:17:54;13.50;;;5.32;;
56183;SDS011;42086;53.170;6.980;2022-10-16T23:20:20;13.23;;;5.13;;
56183;SDS011;42086;53.170;6.980;2022-10-16T23:22:46;11.77;;;4.70;;
56183;SDS011;42086;53.170;6.980;2022-10-16T23:25:12;16.05;;;5.38;;
56183;SDS011;42086;53.170;6.980;2022-10-16T23:27:37;12.23;;;5.20;;
56183;SDS011;42086;53.170;6.980;2022-10-16T23:30:03;12.35;;;5.85;;
56183;SDS011;42086;53.170;6.980;2022-10-16T23:32:31;9.20;;;5.28;;
56183;SDS011;42086;53.170;6.980;2022-10-16T23:34:57;12.10;;;5.80;;
56183;SDS011;42086;53.170;6.980;2022-10-16T23:37:23;12.40;;;6.00;;
56183;SDS011;42086;53.170;6.980;2022-10-16T23:39:49;14.95;;;6.32;;
56183;SDS011;42086;53.170;6.980;2022-10-16T23:42:15;11.45;;;6.45;;
56183;SDS011;42086;53.170;6.980;2022-10-16T23:44:41;11.18;;;6.47;;
56183;SDS011;42086;53.170;6.980;2022-10-16T23:47:07;15.35;;;6.63;;
56183;SDS011;42086;53.170;6.980;2022-10-16T23:49:33;13.70;;;6.60;;
56183;SDS011;42086;53.170;6.980;2022-10-16T23:51:59;13.27;;;6.45;;
56183;SDS011;42086;53.170;6.980;2022-10-16T23:54:24;14.65;;;6.90;;
56183;SDS011;42086;53.170;6.980;2022-10-16T23:56:50;14.82;;;7.03;;
56183;SDS011;42086;53.170;6.980;2022-10-16T23:59:16;13.32;;;6.13;;
